Overview Statistics Trail Chart Weather Telemetry Raw packets
 

This is the latest recevied weather packets stored in our database for station/object KK7MLS-13. If no packets are shown the sender has not sent any weather packets the latest 10 day(s).

<< 77 78 79 80 81 82 83 >>
Time Temp. Humidity Pressure Rain* Wind** Luminosity Snow
1788118940 20.56° C 53% 1020.4 hPa 0 mm - 523 W/m² -
1788118639 20.56° C 53% 1020.4 hPa 0 mm - 729 W/m² -
1788118334 21.11° C 50% 1020.3 hPa 0 mm - 242 W/m² -
1788118030 20° C 53% 1020.7 hPa 0 mm - 850 W/m² -
1788117725 20.56° C 53% 1020.5 hPa 0 mm - 417 W/m² -
1788117421 21.11° C 52% 1020.6 hPa 0 mm - 295 W/m² -
1788117114 20.56° C 53% 1020.8 hPa 0 mm - 825 W/m² -
1788116810 19.44° C 55% 1020.7 hPa 0 mm - 835 W/m² -
1788116505 20° C 57% 1020.8 hPa 0 mm - 204 W/m² -
1788116203 20° C 55% 1020.8 hPa 0 mm - 215 W/m² -
1788115900 19.44° C 53% 1021 hPa 0 mm - 842 W/m² -
1788115598 17.78° C 62% 1021 hPa 0 mm - 365 W/m² -
1788115293 17.22° C 63% 1021.1 hPa 0 mm - 234 W/m² -
1788114988 17.78° C 63% 1020.9 hPa 0 mm - 171 W/m² -
1788114684 17.22° C 66% 1020.9 hPa 0 mm - 175 W/m² -
1788114379 17.22° C 65% 1021.1 hPa 0 mm - 163 W/m² -
1788114075 17.78° C 66% 1021.2 hPa 0 mm - 163 W/m² -
1788113771 17.78° C 65% 1021.1 hPa 0 mm - 145 W/m² -
1788113471 17.78° C 66% 1021.2 hPa 0 mm - 111 W/m² -
1788113169 17.78° C 66% 1021.1 hPa 0 mm - 123 W/m² -
1788112864 17.78° C 63% 1020.9 hPa 0 mm - 131 W/m² -
1788112563 17.78° C 66% 1021 hPa 0 mm - 136 W/m² -
1788112259 17.78° C 66% 1020.9 hPa 0 mm - 154 W/m² -
1788111953 17.22° C 69% 1021 hPa 0 mm - 661 W/m² -
1788111648 16.67° C 67% 1021.1 hPa 0 mm - 425 W/m² -

* Rain latest hour (hover to see other rain measurements)
** Current wind speed in m/s (hover to see current wind gust speed)